Terminal Aerodrome Forecast
Issued by NWS Columbia, SC

Home | Current Version | Previous Version | Text Only | Print | Product List | Glossary On
Versions: 1 2 3 4 5 6 7 8 9 10 11 12 13 14 15 16 17 18 19 20 21 22 23 24 25 26 27 28 29 30 31 32
877
FTUS42 KCAE 221740
TAFCAE
TAF
KCAE 221740Z 2218/2318 15008KT P6SM BKN015 BKN060
     FM221900 16010KT P6SM VCTS BKN015CB
     FM222100 20012G20KT 5SM TSRA SCT015 BKN035CB
     FM230200 23013G25KT 4SM SHRA BR OVC025
     FM230800 22007KT P6SM SCT015 OVC025=

USA.gov is the U.S. government's official web portal to all federal, state and local government web resources and services.